Aguanga, CA

10:23 PM PDT on August 27, 2014 (GMT -0700)
Ramona | Change Station
CLOSE
Current Station
Airport
Location: Ramona,
Elevation: 1394 ft
Nearby Weather Stations

Elev 1394 ft 33.04 °N, 116.92 °W | Updated 30 minutes ago

Clear
Clear
72 °F
Feels Like 72 °F
N
0
Wind Variable Wind from North

Today
High -- | Low -- °F
--% Chance of Precip.
Yesterday
High -- | Low -- °F
Precip. -- in
6:18 AM 7:18 PM
Waxing Crescent, 6% visible
Pressure 30.01 in
Visibility 10.0 miles
Clouds Clear
Dew Point 45 °F
Humidity 38%
Rainfall 0.00 in
Snow Depth Not available.
UV 0 out of 12
Pollen 6.80 out of 12
Ozone Moderate
Flu Activity Not available.
METAR KRNM 280453Z 00000KT 10SM CLR 22/07 A3006 RMK AO2 SLP161 T02220072

More Conditions Fewer Conditions

Pressure 30.01 in
Visibility 10.0 miles
Clouds Clear
Dew Point 45 °F
Humidity 38%
Rainfall 0.00 in
Snow Depth Not available.
UV 0 out of 12
Pollen 6.80 out of 12
Ozone Moderate
Flu Activity Not available.
METAR KRNM 280453Z 00000KT 10SM CLR 22/07 A3006 RMK AO2 SLP161 T02220072

More Conditions Fewer Conditions

10-Day Weather Forecast

Almanac

Astronomy

Aug. 27, 2014 Rise Set
Actual Time 6:18 AM PDT 7:18 PM PDT
Civil Twilight 5:52 AM PDT 7:44 PM PDT
Nautical Twilight 5:22 AM PDT 8:14 PM PDT
Astronomical Twilight 4:50 AM PDT 8:45 PM PDT
Moon 8:10 AM PDT (8/27) 8:22 PM PDT (8/27)
Length of Visible Light 13h 51m
Length of Day
13h 00m
Tomorrow will be 1m 57s shorter.
Waxing Crescent, 6% of the Moon is Illuminated
Aug 28
Waxing Crescent
Sep 2
First Quarter
Sep 8
Full
Sep 15
Last Quarter
Sep 24
New

Yesterday's Extremes

State Highs State Lows

Community

WunderPhotos

Upload Photos

1,747,909 photos uploaded!

Nearby

Air Quality

  Air Quality AQ Index Pollutant
Yesterday Good
OZONE
Yesterday Good
PM10
Current Moderate
OZONE
Thursday Moderate
OZONE
Thursday Good
PM10
Thursday Good
CO
Thursday Good
NO2

Snow Depth

Station Depth Elevation
Leavitt Lake 0 in 9400 ft
Leavitt Meadows 1 in 7200 ft
Summit Meadow 0 in 9122 ft
Monitor Pass 0 in 8350 ft
Blue Lakes 0 in 8000 ft

Earthquake Activity

City Distance Mag. Time & Date
San Fernando, California 108 miles 2.5 4:57 AM PDT
2014-08-26
Progreso, Mexico 86 miles 2.6 10:55 PM PDT
2014-08-25
Maneadero, Mexico 119 miles 2.8 1:03 PM PDT
2014-08-25
Minimum magnitude displayed is 2.5.

Coastal Water Temperatures

Place Temperature
No Stations Reporting

Nearby Weather Stations